createdAt,value
2019-04-25T00:00:53.286Z,12.80
2019-04-25T00:03:24.394Z,12.80
2019-04-25T00:05:54.075Z,12.80
2019-04-25T00:08:23.954Z,12.80
2019-04-25T00:10:53.513Z,12.70
2019-04-25T00:13:24.082Z,12.70
2019-04-25T00:15:53.740Z,12.70
2019-04-25T00:18:23.471Z,12.70
2019-04-25T00:20:54.626Z,12.70
2019-04-25T00:23:24.138Z,12.70
2019-04-25T00:25:55.412Z,12.70
2019-04-25T00:28:25.046Z,12.70
2019-04-25T00:30:54.740Z,12.60
2019-04-25T00:33:25.464Z,12.60
2019-04-25T00:35:54.951Z,12.60
2019-04-25T00:38:24.760Z,12.60
2019-04-25T00:40:54.305Z,12.50
2019-04-25T00:43:23.790Z,12.50
2019-04-25T00:45:53.401Z,12.40
2019-04-25T00:48:23.065Z,12.40
2019-04-25T00:50:54.580Z,12.30
2019-04-25T00:53:23.675Z,12.30
2019-04-25T00:55:53.887Z,12.30
2019-04-25T00:58:25.103Z,12.20
2019-04-25T01:00:56.185Z,12.20
2019-04-25T01:03:27.496Z,12.10
2019-04-25T01:05:57.050Z,12.00
2019-04-25T01:08:26.573Z,11.90
2019-04-25T01:10:56.328Z,12.00
2019-04-25T01:13:25.739Z,11.80
2019-04-25T01:15:55.155Z,11.90
2019-04-25T01:18:25.250Z,11.90
2019-04-25T01:20:55.465Z,11.80
2019-04-25T01:23:25.179Z,11.80
2019-04-25T01:25:54.781Z,11.80
2019-04-25T01:28:24.397Z,11.80
2019-04-25T01:30:55.095Z,11.70
2019-04-25T01:33:25.551Z,11.70
2019-04-25T01:35:57.011Z,11.70
2019-04-25T01:38:28.175Z,11.70
2019-04-25T01:40:59.192Z,11.70
2019-04-25T01:43:30.365Z,11.70
2019-04-25T01:46:00.727Z,11.60
2019-04-25T01:48:30.194Z,11.60
2019-04-25T01:50:59.721Z,11.60
2019-04-25T01:53:29.145Z,11.50
2019-04-25T01:56:04.094Z,11.50
2019-04-25T01:58:30.017Z,11.50
2019-04-25T02:00:59.469Z,11.50
2019-04-25T02:03:28.977Z,11.50
2019-04-25T02:05:59.740Z,11.50
2019-04-25T02:08:43.885Z,11.40
2019-04-25T02:11:15.192Z,11.40
2019-04-25T02:13:44.721Z,11.30
2019-04-25T02:16:14.455Z,11.30
2019-04-25T02:18:44.080Z,11.20
2019-04-25T02:21:13.778Z,11.30
2019-04-25T02:23:44.208Z,11.20
2019-04-25T02:26:16.764Z,11.20
2019-04-25T02:28:45.081Z,11.20
2019-04-25T02:31:17.977Z,11.10
2019-04-25T02:33:45.822Z,11.10
2019-04-25T02:36:15.468Z,11.10
2019-04-25T02:38:45.167Z,11.00
2019-04-25T02:41:15.024Z,11.00
2019-04-25T02:43:45.700Z,10.90
2019-04-25T02:46:16.815Z,10.80
2019-04-25T02:48:47.926Z,10.80
2019-04-25T02:51:19.191Z,10.70
2019-04-25T02:53:50.387Z,10.70
2019-04-25T02:56:31.279Z,10.70
2019-04-25T02:58:51.081Z,10.70
2019-04-25T03:01:25.152Z,10.70
2019-04-25T03:03:54.236Z,10.70
2019-04-25T03:06:24.985Z,10.70
2019-04-25T03:08:54.476Z,10.60
2019-04-25T03:11:24.615Z,10.60
2019-04-25T03:13:54.615Z,10.50
2019-04-25T03:16:25.135Z,10.50
2019-04-25T03:18:56.401Z,10.50
2019-04-25T03:21:27.680Z,10.50
2019-04-25T03:23:58.606Z,10.50
2019-04-25T03:26:37.987Z,10.50
2019-04-25T03:28:59.732Z,10.50
2019-04-25T03:31:29.407Z,10.50
2019-04-25T03:33:58.860Z,10.50
2019-04-25T03:36:28.399Z,10.50
2019-04-25T03:38:57.906Z,10.50
2019-04-25T03:41:27.361Z,10.40
2019-04-25T03:43:56.987Z,10.40
2019-04-25T03:46:26.396Z,10.40
2019-04-25T03:48:55.948Z,10.40
2019-04-25T03:51:25.469Z,10.40
2019-04-25T03:53:54.953Z,10.50
2019-04-25T03:56:24.924Z,10.60
2019-04-25T03:58:54.784Z,10.60
2019-04-25T04:01:25.578Z,10.70
2019-04-25T04:03:55.344Z,10.80
2019-04-25T04:06:24.782Z,10.80
2019-04-25T04:08:54.243Z,10.90
2019-04-25T04:11:23.826Z,11.00
2019-04-25T04:13:55.485Z,11.10
2019-04-25T04:16:26.514Z,11.10
2019-04-25T04:18:56.516Z,11.20
2019-04-25T04:21:27.609Z,11.20
2019-04-25T04:23:59.822Z,11.30
2019-04-25T04:26:29.417Z,11.40
2019-04-25T04:28:58.911Z,11.40
2019-04-25T04:31:28.367Z,11.40
2019-04-25T04:33:57.843Z,11.50
2019-04-25T04:36:27.297Z,11.50
2019-04-25T04:38:56.777Z,11.50
2019-04-25T04:41:26.262Z,11.60
2019-04-25T04:43:55.808Z,11.60
2019-04-25T04:46:26.328Z,11.60
2019-04-25T04:48:55.772Z,11.60
2019-04-25T04:51:26.293Z,11.60
2019-04-25T04:53:55.796Z,11.60
2019-04-25T04:56:25.735Z,11.60
2019-04-25T04:58:55.411Z,11.70
2019-04-25T05:01:26.523Z,11.80
2019-04-25T05:03:57.586Z,11.80
2019-04-25T05:06:28.776Z,11.90
2019-04-25T05:08:59.862Z,11.90
2019-04-25T05:11:29.342Z,11.90
2019-04-25T05:13:58.866Z,12.00
2019-04-25T05:16:28.338Z,12.00
2019-04-25T05:18:57.919Z,12.10
2019-04-25T05:21:27.302Z,12.20
2019-04-25T05:23:56.817Z,12.40
2019-04-25T05:26:26.475Z,12.50
2019-04-25T05:28:56.002Z,12.70
2019-04-25T05:31:27.204Z,12.90
2019-04-25T05:33:56.785Z,13.00
2019-04-25T05:36:28.048Z,13.20
2019-04-25T05:38:57.517Z,13.30
2019-04-25T05:41:28.595Z,13.30
2019-04-25T05:43:58.047Z,13.30
2019-04-25T05:46:27.548Z,13.40
2019-04-25T05:48:57.058Z,13.20
2019-04-25T05:51:26.553Z,13.10
2019-04-25T05:53:56.097Z,13.20
2019-04-25T05:56:26.942Z,13.10
2019-04-25T05:58:57.111Z,13.20
2019-04-25T06:01:29.249Z,13.40
2019-04-25T06:03:58.000Z,13.40
2019-04-25T06:06:28.243Z,13.40
2019-04-25T06:08:59.434Z,13.50
2019-04-25T06:11:30.484Z,13.60
2019-04-25T06:14:02.965Z,13.70
2019-04-25T06:16:33.425Z,13.60
2019-04-25T06:19:13.641Z,13.60
2019-04-25T06:21:36.043Z,13.70
2019-04-25T06:24:07.477Z,13.90
2019-04-25T06:26:40.091Z,14.00
2019-04-25T06:29:09.637Z,14.00
2019-04-25T06:31:39.186Z,14.10
2019-04-25T06:34:08.715Z,14.30
2019-04-25T06:36:38.100Z,14.40
2019-04-25T06:39:08.230Z,14.60
2019-04-25T06:41:37.655Z,14.70
2019-04-25T06:44:08.943Z,14.90
2019-04-25T06:46:40.229Z,15.00
2019-04-25T06:49:11.367Z,15.10
2019-04-25T06:51:44.037Z,15.20
2019-04-25T06:54:13.954Z,15.30
2019-04-25T06:56:43.543Z,15.30
2019-04-25T06:59:13.660Z,15.40
2019-04-25T07:01:44.012Z,15.50
2019-04-25T07:04:14.134Z,15.70
2019-04-25T07:06:45.441Z,15.80
2019-04-25T07:09:15.265Z,15.90
2019-04-25T07:11:44.700Z,16.00
2019-04-25T07:14:14.339Z,16.10
2019-04-25T07:16:43.889Z,16.20
2019-04-25T07:19:14.675Z,16.30
2019-04-25T07:21:44.741Z,16.40
2019-04-25T07:24:17.299Z,16.50
2019-04-25T07:26:47.448Z,16.60
2019-04-25T07:29:18.614Z,16.70
2019-04-25T07:31:49.817Z,16.70
2019-04-25T07:34:21.027Z,16.80
2019-04-25T07:36:50.667Z,16.90
2019-04-25T07:39:20.122Z,17.10
2019-04-25T07:41:49.660Z,17.20
2019-04-25T07:44:22.020Z,17.30
2019-04-25T07:46:51.410Z,17.30
2019-04-25T07:49:23.504Z,17.50
2019-04-25T07:51:53.802Z,17.60
2019-04-25T07:54:23.984Z,17.70
2019-04-25T07:56:55.826Z,17.80
2019-04-25T07:59:25.287Z,17.90
2019-04-25T08:01:54.749Z,18.00
2019-04-25T08:04:24.197Z,18.10
2019-04-25T08:06:54.667Z,18.20
2019-04-25T08:09:24.379Z,18.20
2019-04-25T08:11:54.887Z,18.30
2019-04-25T08:14:26.232Z,18.50
2019-04-25T08:16:57.387Z,18.50
2019-04-25T08:19:27.118Z,18.60
2019-04-25T08:21:58.254Z,18.70
2019-04-25T08:24:28.359Z,18.70
2019-04-25T08:27:00.007Z,18.80
2019-04-25T08:29:29.511Z,19.00
2019-04-25T08:31:59.232Z,19.00
2019-04-25T08:34:28.837Z,19.10
2019-04-25T08:36:58.656Z,19.20
2019-04-25T08:39:28.358Z,19.20
2019-04-25T08:41:57.812Z,19.30
2019-04-25T08:44:27.215Z,19.30
2019-04-25T08:46:56.660Z,19.40
2019-04-25T08:49:27.679Z,19.40
2019-04-25T08:51:58.382Z,19.50
2019-04-25T08:54:29.602Z,19.60
2019-04-25T08:57:00.822Z,19.70
2019-04-25T08:59:37.340Z,19.70
2019-04-25T09:02:04.855Z,19.70
2019-04-25T09:04:36.900Z,19.80
2019-04-25T09:07:06.521Z,19.80
2019-04-25T09:09:36.933Z,19.80
2019-04-25T09:12:07.617Z,19.90
2019-04-25T09:14:37.847Z,20.00
2019-04-25T09:17:07.476Z,20.20
2019-04-25T09:19:38.205Z,20.10
2019-04-25T09:22:08.056Z,20.00
2019-04-25T09:24:38.103Z,20.10
2019-04-25T09:27:08.575Z,20.30
2019-04-25T09:29:38.906Z,20.30
2019-04-25T09:32:08.589Z,20.30
2019-04-25T09:34:38.179Z,20.30
2019-04-25T09:37:07.754Z,20.40
2019-04-25T09:39:39.018Z,20.40
2019-04-25T09:42:09.944Z,20.50
2019-04-25T09:44:41.045Z,20.40
2019-04-25T09:47:10.653Z,20.40
2019-04-25T09:49:41.755Z,20.50
2019-04-25T09:52:13.384Z,20.50
2019-04-25T09:54:45.181Z,20.50
2019-04-25T09:57:16.527Z,20.50
2019-04-25T09:59:46.203Z,20.50
2019-04-25T10:02:16.044Z,20.60
2019-04-25T10:04:46.366Z,20.70
2019-04-25T10:07:16.104Z,21.00
2019-04-25T10:09:46.246Z,21.00
2019-04-25T10:12:15.832Z,20.90
2019-04-25T10:14:49.169Z,21.20
2019-04-25T10:17:18.877Z,21.10
2019-04-25T10:19:49.480Z,21.20
2019-04-25T10:22:18.995Z,21.20
2019-04-25T10:24:59.935Z,21.30
2019-04-25T10:27:19.634Z,21.40
2019-04-25T10:29:53.711Z,21.40
2019-04-25T10:32:20.293Z,21.30
2019-04-25T10:34:49.927Z,21.20
2019-04-25T10:37:19.551Z,21.30
2019-04-25T10:39:49.025Z,21.30
2019-04-25T10:42:18.670Z,21.20
2019-04-25T10:44:48.356Z,21.30
2019-04-25T10:47:18.037Z,21.50
2019-04-25T10:49:48.075Z,21.40
2019-04-25T10:52:17.992Z,21.50
2019-04-25T10:54:47.970Z,21.60
2019-04-25T10:57:17.721Z,21.80
2019-04-25T11:00:00.319Z,21.60
2019-04-25T11:02:23.473Z,21.80
2019-04-25T11:04:55.836Z,21.80
2019-04-25T11:07:25.395Z,21.80
2019-04-25T11:09:55.166Z,21.90
2019-04-25T11:12:25.687Z,22.10
2019-04-25T11:14:56.266Z,21.80
2019-04-25T11:17:26.000Z,21.60
2019-04-25T11:19:55.755Z,21.50
2019-04-25T11:22:25.293Z,21.50
2019-04-25T11:24:54.940Z,21.60
2019-04-25T11:27:24.881Z,21.90
2019-04-25T11:30:08.226Z,22.10
2019-04-25T11:32:28.164Z,22.30
2019-04-25T11:34:57.701Z,22.40
2019-04-25T11:37:28.821Z,22.50
2019-04-25T11:40:00.024Z,22.60
2019-04-25T11:42:29.557Z,22.60
2019-04-25T11:44:59.047Z,22.50
2019-04-25T11:47:28.661Z,22.50
2019-04-25T11:49:58.185Z,22.60
2019-04-25T11:52:30.268Z,22.50
2019-04-25T11:54:58.905Z,22.40
2019-04-25T11:57:28.449Z,22.40
2019-04-25T11:59:58.039Z,22.60
2019-04-25T12:02:27.717Z,22.70
2019-04-25T12:04:57.193Z,22.60
2019-04-25T12:07:26.650Z,22.50
2019-04-25T12:09:56.085Z,22.40
2019-04-25T12:12:25.568Z,22.50
2019-04-25T12:14:55.429Z,22.50
2019-04-25T12:17:26.009Z,22.60
2019-04-25T12:19:56.245Z,22.60
2019-04-25T12:22:26.012Z,22.60
2019-04-25T12:24:55.730Z,22.70
2019-04-25T12:27:26.010Z,22.70
2019-04-25T12:29:55.614Z,22.70
2019-04-25T12:32:25.009Z,22.80
2019-04-25T12:34:54.510Z,22.60
2019-04-25T12:37:25.038Z,22.60
2019-04-25T12:39:54.740Z,22.40
2019-04-25T12:42:24.368Z,22.50
2019-04-25T12:44:56.127Z,22.60
2019-04-25T12:47:27.647Z,22.70
2019-04-25T12:49:57.881Z,22.60
2019-04-25T12:52:27.496Z,22.60
2019-04-25T12:54:58.139Z,22.90
2019-04-25T12:57:28.021Z,23.00
2019-04-25T12:59:57.644Z,22.90
2019-04-25T13:02:27.357Z,23.00
2019-04-25T13:04:56.884Z,23.00
2019-04-25T13:07:26.402Z,23.00
2019-04-25T13:09:55.965Z,23.00
2019-04-25T13:12:25.568Z,22.80
2019-04-25T13:14:56.090Z,22.90
2019-04-25T13:17:26.628Z,22.90
2019-04-25T13:19:56.775Z,22.80
2019-04-25T13:22:26.247Z,22.80
2019-04-25T13:24:56.352Z,22.90
2019-04-25T13:27:27.579Z,22.90
2019-04-25T13:29:58.885Z,23.10
2019-04-25T13:32:30.042Z,23.00
2019-04-25T13:35:01.218Z,23.20
2019-04-25T13:37:30.809Z,23.30
2019-04-25T13:40:00.550Z,23.30
2019-04-25T13:42:30.266Z,23.40
2019-04-25T13:44:59.733Z,23.00
2019-04-25T13:47:29.688Z,22.90
2019-04-25T13:50:00.180Z,23.10
2019-04-25T13:52:29.574Z,23.00
2019-04-25T13:54:59.035Z,22.70
2019-04-25T13:57:28.499Z,22.70
2019-04-25T13:59:57.902Z,22.60
2019-04-25T14:02:27.486Z,22.60
2019-04-25T14:04:56.908Z,22.70
2019-04-25T14:07:27.307Z,22.70
2019-04-25T14:09:56.875Z,22.80
2019-04-25T14:12:28.074Z,23.00
2019-04-25T14:14:57.432Z,23.10
2019-04-25T14:17:28.508Z,23.20
2019-04-25T14:19:59.534Z,23.20
2019-04-25T14:22:30.322Z,23.20
2019-04-25T14:25:00.136Z,23.10
2019-04-25T14:27:30.175Z,23.00
2019-04-25T14:30:00.825Z,23.00
2019-04-25T14:32:30.644Z,22.80
2019-04-25T14:35:00.223Z,22.70
2019-04-25T14:37:33.605Z,22.80
2019-04-25T14:40:01.123Z,22.90
2019-04-25T14:42:31.698Z,23.00
2019-04-25T14:45:02.342Z,23.10
2019-04-25T14:47:32.607Z,23.10
2019-04-25T14:50:02.134Z,23.20
2019-04-25T14:52:32.050Z,23.20
2019-04-25T14:55:03.458Z,23.20
2019-04-25T14:57:33.158Z,23.10
2019-04-25T15:00:04.852Z,23.10
2019-04-25T15:02:36.424Z,23.10
2019-04-25T15:05:06.527Z,23.00
2019-04-25T15:07:36.043Z,22.90
2019-04-25T15:10:06.704Z,22.90
2019-04-25T15:12:36.206Z,22.90
2019-04-25T15:15:06.276Z,22.90
2019-04-25T15:17:45.273Z,22.90
2019-04-25T15:20:08.485Z,22.80
2019-04-25T15:22:37.945Z,22.80
2019-04-25T15:25:07.473Z,22.80
2019-04-25T15:27:37.760Z,22.60
2019-04-25T15:30:09.530Z,22.60
2019-04-25T15:32:38.906Z,22.40
2019-04-25T15:35:10.311Z,22.40
2019-04-25T15:37:41.450Z,22.50
2019-04-25T15:40:12.953Z,22.60
2019-04-25T15:42:44.072Z,22.70
2019-04-25T15:45:17.174Z,22.70
2019-04-25T15:47:46.697Z,22.70
2019-04-25T15:50:16.213Z,22.70
2019-04-25T15:52:45.672Z,22.60
2019-04-25T15:55:15.356Z,22.50
2019-04-25T15:57:44.819Z,22.40
2019-04-25T16:00:16.200Z,22.40
2019-04-25T16:02:45.693Z,22.30
2019-04-25T16:05:15.109Z,22.10
2019-04-25T16:07:44.501Z,22.00
2019-04-25T16:10:14.333Z,21.90
2019-04-25T16:12:43.866Z,21.80
2019-04-25T16:15:13.490Z,21.70
2019-04-25T16:17:43.055Z,21.70
2019-04-25T16:20:12.693Z,21.70
2019-04-25T16:22:42.108Z,21.60
2019-04-25T16:25:11.640Z,21.50
2019-04-25T16:27:41.166Z,21.40
2019-04-25T16:30:12.700Z,21.30
2019-04-25T16:32:43.775Z,21.20
2019-04-25T16:35:13.357Z,21.20
2019-04-25T16:37:43.021Z,21.10
2019-04-25T16:40:12.589Z,21.10
2019-04-25T16:42:42.211Z,21.00
2019-04-25T16:45:12.217Z,20.90
2019-04-25T16:47:41.951Z,20.80
2019-04-25T16:50:12.272Z,20.80
2019-04-25T16:52:42.564Z,20.80
2019-04-25T16:55:13.098Z,20.80
2019-04-25T16:57:43.474Z,20.90
2019-04-25T17:00:15.029Z,20.80
2019-04-25T17:02:45.892Z,20.70
2019-04-25T17:05:15.730Z,20.60
2019-04-25T17:07:45.400Z,20.60
2019-04-25T17:10:15.229Z,20.60
2019-04-25T17:12:44.930Z,20.50
2019-04-25T17:15:16.152Z,20.50
2019-04-25T17:17:47.317Z,20.50
2019-04-25T17:20:18.553Z,20.40
2019-04-25T17:22:48.155Z,20.30
2019-04-25T17:25:20.246Z,20.30
2019-04-25T17:27:50.087Z,20.20
2019-04-25T17:30:19.825Z,20.10
2019-04-25T17:32:53.977Z,20.00
2019-04-25T17:35:25.650Z,19.90
2019-04-25T17:37:56.899Z,19.90
2019-04-25T17:40:27.957Z,19.80
2019-04-25T17:42:57.469Z,19.80
2019-04-25T17:45:28.650Z,19.80
2019-04-25T17:47:58.154Z,19.80
2019-04-25T17:50:27.667Z,19.70
2019-04-25T17:52:57.188Z,19.70
2019-04-25T17:55:26.655Z,19.70
2019-04-25T17:57:57.158Z,19.70
2019-04-25T18:00:28.318Z,19.70
2019-04-25T18:02:59.051Z,19.60
2019-04-25T18:05:29.101Z,19.50
2019-04-25T18:07:58.645Z,19.40
2019-04-25T18:10:28.529Z,19.40
2019-04-25T18:12:58.076Z,19.40
2019-04-25T18:15:29.330Z,19.30
2019-04-25T18:17:59.570Z,19.20
2019-04-25T18:20:30.688Z,19.00
2019-04-25T18:23:01.785Z,18.90
2019-04-25T18:25:32.859Z,18.80
2019-04-25T18:28:03.925Z,18.70
2019-04-25T18:30:33.483Z,18.60
2019-04-25T18:33:10.243Z,18.50
2019-04-25T18:35:39.297Z,18.40
2019-04-25T18:38:10.410Z,18.30
2019-04-25T18:40:41.969Z,18.10
2019-04-25T18:43:13.403Z,17.90
2019-04-25T18:45:44.549Z,17.90
2019-04-25T18:48:14.350Z,17.80
2019-04-25T18:50:44.622Z,17.60
2019-04-25T18:53:15.944Z,17.50
2019-04-25T18:55:47.843Z,17.40
2019-04-25T18:58:19.165Z,17.40
2019-04-25T19:00:50.544Z,17.30
2019-04-25T19:03:23.462Z,17.30
2019-04-25T19:05:56.561Z,17.20
2019-04-25T19:08:27.617Z,17.20
2019-04-25T19:10:57.258Z,17.10
2019-04-25T19:13:26.957Z,17.10
2019-04-25T19:15:56.565Z,17.10
2019-04-25T19:18:26.029Z,17.10
2019-04-25T19:20:56.200Z,17.00
2019-04-25T19:23:25.706Z,16.90
2019-04-25T19:25:55.134Z,16.80
2019-04-25T19:28:24.685Z,16.70
2019-04-25T19:30:54.157Z,16.60
2019-04-25T19:33:34.973Z,16.60
2019-04-25T19:36:00.376Z,16.60
2019-04-25T19:38:31.069Z,16.60
2019-04-25T19:43:46.580Z,16.70
2019-04-25T19:46:16.247Z,16.70
2019-04-25T19:48:51.169Z,16.70
2019-04-25T19:51:22.151Z,16.70
2019-04-25T19:53:51.740Z,16.60
2019-04-25T19:56:21.398Z,16.50
2019-04-25T19:58:50.794Z,16.40
2019-04-25T20:01:20.633Z,16.30
2019-04-25T20:03:57.998Z,16.20
2019-04-25T20:06:25.859Z,16.10
2019-04-25T20:08:57.986Z,15.90
2019-04-25T20:11:29.145Z,15.80
2019-04-25T20:13:58.666Z,15.80
2019-04-25T20:16:30.750Z,15.80
2019-04-25T20:19:00.459Z,15.70
2019-04-25T20:21:31.277Z,15.60
2019-04-25T20:24:01.009Z,15.60
2019-04-25T20:26:31.464Z,15.50
2019-04-25T20:29:01.307Z,15.50
2019-04-25T20:31:31.967Z,15.50
2019-04-25T20:34:06.073Z,15.40
2019-04-25T20:36:32.635Z,15.40
2019-04-25T20:39:02.057Z,15.30
2019-04-25T20:41:33.167Z,15.30
2019-04-25T20:44:02.701Z,15.30
2019-04-25T20:46:32.151Z,15.30
2019-04-25T20:49:01.562Z,15.20
2019-04-25T20:51:30.991Z,15.10
2019-04-25T20:54:00.547Z,15.10
2019-04-25T20:56:30.136Z,14.90
2019-04-25T20:58:59.761Z,14.70
2019-04-25T21:01:29.274Z,14.60
2019-04-25T21:03:58.729Z,14.60
2019-04-25T21:06:29.925Z,14.70
2019-04-25T21:08:59.363Z,14.70
2019-04-25T21:11:28.940Z,14.50
2019-04-25T21:14:01.290Z,14.50
2019-04-25T21:16:33.088Z,14.50
2019-04-25T21:19:04.185Z,14.40
2019-04-25T21:21:33.689Z,14.40
2019-04-25T21:24:04.294Z,14.40
2019-04-25T21:26:33.805Z,14.40
2019-04-25T21:29:04.413Z,14.40
2019-04-25T21:31:34.526Z,14.40
2019-04-25T21:34:04.045Z,14.30
2019-04-25T21:36:33.868Z,14.30
2019-04-25T21:39:06.613Z,14.30
2019-04-25T21:41:40.041Z,14.30
2019-04-25T21:44:09.959Z,14.20
2019-04-25T21:46:39.558Z,14.20
2019-04-25T21:49:09.522Z,14.20
2019-04-25T21:51:39.024Z,14.10
2019-04-25T21:54:08.631Z,14.10
2019-04-25T21:56:38.486Z,14.10
2019-04-25T21:59:08.504Z,14.00
2019-04-25T22:01:40.160Z,14.00
2019-04-25T22:04:09.781Z,14.00
2019-04-25T22:06:39.893Z,14.00
2019-04-25T22:09:12.482Z,14.00
2019-04-25T22:11:42.050Z,14.00
2019-04-25T22:14:12.427Z,13.90
2019-04-25T22:16:42.305Z,13.90
2019-04-25T22:19:13.121Z,13.80
2019-04-25T22:21:42.962Z,13.80
2019-04-25T22:24:14.433Z,13.70
2019-04-25T22:26:44.191Z,13.70
2019-04-25T22:29:13.690Z,13.60
2019-04-25T22:31:44.843Z,13.50
2019-04-25T22:34:16.035Z,13.50
2019-04-25T22:36:45.836Z,13.50
2019-04-25T22:39:15.451Z,13.40
2019-04-25T22:41:47.213Z,13.40
2019-04-25T22:44:18.736Z,13.30
2019-04-25T22:46:48.521Z,13.30
2019-04-25T22:49:18.112Z,13.20
2019-04-25T22:51:47.671Z,13.20
2019-04-25T22:54:17.548Z,13.20
2019-04-25T22:56:47.096Z,13.20
2019-04-25T22:59:16.951Z,13.10
2019-04-25T23:01:48.150Z,13.10
2019-04-25T23:04:19.284Z,13.00
2019-04-25T23:06:48.870Z,13.00
2019-04-25T23:09:18.459Z,13.00
2019-04-25T23:11:48.259Z,13.00
2019-04-25T23:14:18.097Z,13.00
2019-04-25T23:16:47.622Z,13.00
2019-04-25T23:19:17.022Z,13.00
2019-04-25T23:21:46.740Z,12.90
2019-04-25T23:24:17.927Z,12.90
2019-04-25T23:26:49.278Z,12.90
2019-04-25T23:29:18.856Z,12.90
2019-04-25T23:31:48.777Z,12.80
2019-04-25T23:34:18.574Z,12.80
2019-04-25T23:36:48.133Z,12.80
2019-04-25T23:39:17.632Z,12.80
2019-04-25T23:41:47.270Z,12.70
2019-04-25T23:44:16.716Z,12.60
2019-04-25T23:46:46.603Z,12.60
2019-04-25T23:49:16.998Z,12.50
2019-04-25T23:51:47.922Z,12.50
2019-04-25T23:54:17.503Z,12.50
2019-04-25T23:56:47.168Z,12.50
2019-04-25T23:59:17.798Z,12.60
